Monday, December 10, 2018, 10:14 PM EST
Back to Local

KPVC, Provincetown, Provincetown Municipal Airport

Location: Provincetown, MA, United States Lat: 42.067
Local Time: 10:14 PM EST ( 3:14 GMT) Lon: -70.217
Time Zone: US/Eastern Elev: 6 ft

Show me the last for .
Show Decoded

2018-12-10 21:56 METAR KPVC 110256Z AUTO 01008KT 10SM CLR 01/M07 A3016 RMK AO2 SLP212 T00061072
                 51009 FZRANO =
2018-12-10 20:56 METAR KPVC 110156Z AUTO 34007KT 10SM CLR 01/M07 A3016 RMK AO2 SLP212 T00061072
                 FZRANO =
2018-12-10 19:56 METAR KPVC 110056Z AUTO 34011KT 10SM CLR 01/M07 A3015 RMK AO2 SLP208 T00111072
                 FZRANO =
2018-12-10 18:56 METAR KPVC 102356Z AUTO 35011KT 10SM CLR 01/M07 A3013 RMK AO2 SLP203 T00111072
                 10028 20011 53007 FZRANO =
2018-12-10 17:56 METAR KPVC 102256Z AUTO 33007KT 10SM CLR 01/M07 A3012 RMK AO2 SLP199 T00111067
                 FZRANO =
2018-12-10 16:56 METAR KPVC 102156Z AUTO 35009KT 10SM CLR 01/M07 A3011 RMK AO2 SLP196 T00111072
                 FZRANO =
2018-12-10 15:56 METAR KPVC 102056Z AUTO 35006KT 10SM BKN035 01/M06 A3011 RMK AO2 SLP196
                 T00111056 51017 FZRANO =
2018-12-10 14:56 METAR KPVC 101956Z AUTO 01007KT 10SM OVC037 02/M05 A3009 RMK AO2 SLP190
                 T00171050 FZRANO =
2018-12-10 13:56 METAR KPVC 101856Z AUTO 35010KT 10SM FEW030 OVC041 02/M04 A3008 RMK AO2 SLP185
                 T00221039 FZRANO =
2018-12-10 12:56 METAR KPVC 101756Z AUTO 02009KT 10SM OVC040 03/M04 A3006 RMK AO2 SLP179
                 T00281039 10033 20022 55007 =
2018-12-10 11:56 METAR KPVC 101656Z AUTO 01012KT 10SM SCT032 OVC043 03/M04 A3006 RMK AO2 SLP179
                 T00281039 =
2018-12-10 10:56 METAR KPVC 101556Z AUTO 01010KT 10SM OVC041 03/M06 A3007 RMK AO2 SLP182
                 T00281056 =
2018-12-10 09:56 METAR KPVC 101456Z AUTO 04012G16KT 10SM OVC041 03/M04 A3008 RMK AO2 SLP187
                 T00331044 53014 =
2018-12-10 08:56 METAR KPVC 101356Z AUTO 03013G16KT 10SM OVC037 03/M05 A3007 RMK AO2 SLP180
                 T00281050 =
2018-12-10 07:56 METAR KPVC 101256Z AUTO 01012G17KT 10SM OVC035 02/M04 A3005 RMK AO2 SLP175
                 T00221039 FZRANO =
2018-12-10 06:56 METAR KPVC 101156Z AUTO 01012KT 10SM OVC033 02/M04 A3004 RMK AO2 SLP173
                 T00221044 10022 20006 55001 FZRANO =
2018-12-10 06:30 METAR KPVC 101130Z AUTO 01012G17KT 10SM OVC033 02/M04 A3005 RMK AO2 FZRANO =
2018-12-10 05:56 METAR KPVC 101056Z AUTO 36013G19KT 10SM BKN029 02/M03 A3004 RMK AO2 SLP173
                 T00171033 FZRANO =
2018-12-10 04:56 METAR KPVC 100956Z AUTO 36012KT 10SM CLR 01/M06 A3004 RMK AO2 SLP172 T00111056
                 FZRANO =
2018-12-10 03:56 METAR KPVC 100856Z AUTO 34014G19KT 10SM CLR 01/M05 A3005 RMK AO2 SLP174
                 T00111050 58013 FZRANO =
2018-12-10 02:56 METAR KPVC 100756Z AUTO 33010KT 10SM CLR 01/M05 A3006 RMK AO2 SLP179 T00111050
                 FZRANO =
2018-12-10 01:56 METAR KPVC 100656Z AUTO 31011KT 10SM CLR 01/M05 A3008 RMK AO2 SLP185 T00061050
                 FZRANO =
2018-12-10 00:56 METAR KPVC 100556Z AUTO 30013G18KT 10SM CLR 01/M07 A3009 RMK AO2 SLP187
                 T00061067 10011 20006 58020 FZRANO =
2018-12-09 23:56 METAR KPVC 100456Z AUTO 29015KT 10SM CLR 01/M06 A3012 RMK AO2 SLP199 T00061061
                 400111028 FZRANO =
2018-12-09 22:56 METAR KPVC 100356Z AUTO 25015KT 10SM CLR 01/M05 A3016 RMK AO2 SLP211 T00061050
                 FZRANO =

Support USWX by starting your Amazon purchase here.